sensor_id;sensor_type;location;lat;lon;timestamp;P1;durP1;ratioP1;P2;durP2;ratioP2
5245;SDS011;54412;51.206;6.888;2023-12-14T00:00:45;34.60;;;23.60;;
5245;SDS011;54412;51.206;6.888;2023-12-14T00:03:10;38.80;;;25.47;;
5245;SDS011;54412;51.206;6.888;2023-12-14T00:05:36;39.93;;;24.90;;
5245;SDS011;54412;51.206;6.888;2023-12-14T00:08:02;38.87;;;24.67;;
5245;SDS011;54412;51.206;6.888;2023-12-14T00:10:27;37.07;;;24.07;;
5245;SDS011;54412;51.206;6.888;2023-12-14T00:12:53;43.20;;;26.37;;
5245;SDS011;54412;51.206;6.888;2023-12-14T00:15:20;37.80;;;25.10;;
5245;SDS011;54412;51.206;6.888;2023-12-14T00:17:46;36.90;;;23.37;;
5245;SDS011;54412;51.206;6.888;2023-12-14T00:20:12;37.80;;;25.30;;
5245;SDS011;54412;51.206;6.888;2023-12-14T00:22:37;38.70;;;23.93;;
5245;SDS011;54412;51.206;6.888;2023-12-14T00:25:04;39.93;;;24.90;;
5245;SDS011;54412;51.206;6.888;2023-12-14T00:27:30;35.47;;;24.33;;
5245;SDS011;54412;51.206;6.888;2023-12-14T00:29:56;37.80;;;23.20;;
5245;SDS011;54412;51.206;6.888;2023-12-14T00:32:22;37.67;;;24.80;;
5245;SDS011;54412;51.206;6.888;2023-12-14T00:34:47;35.30;;;24.30;;
5245;SDS011;54412;51.206;6.888;2023-12-14T00:37:13;39.60;;;25.00;;
5245;SDS011;54412;51.206;6.888;2023-12-14T00:39:39;47.63;;;24.90;;
5245;SDS011;54412;51.206;6.888;2023-12-14T00:42:05;33.90;;;24.40;;
5245;SDS011;54412;51.206;6.888;2023-12-14T00:44:31;34.43;;;23.20;;
5245;SDS011;54412;51.206;6.888;2023-12-14T00:46:56;35.03;;;24.33;;
5245;SDS011;54412;51.206;6.888;2023-12-14T00:49:23;35.67;;;25.70;;
5245;SDS011;54412;51.206;6.888;2023-12-14T00:51:49;30.97;;;23.00;;
5245;SDS011;54412;51.206;6.888;2023-12-14T00:54:15;36.13;;;24.27;;
5245;SDS011;54412;51.206;6.888;2023-12-14T00:56:40;36.17;;;25.17;;
5245;SDS011;54412;51.206;6.888;2023-12-14T00:59:06;36.00;;;25.73;;
5245;SDS011;54412;51.206;6.888;2023-12-14T01:01:32;36.00;;;24.53;;
5245;SDS011;54412;51.206;6.888;2023-12-14T01:03:57;37.30;;;24.60;;
5245;SDS011;54412;51.206;6.888;2023-12-14T01:06:24;38.60;;;25.30;;
5245;SDS011;54412;51.206;6.888;2023-12-14T01:08:50;38.33;;;24.57;;
5245;SDS011;54412;51.206;6.888;2023-12-14T01:11:16;43.50;;;26.03;;
5245;SDS011;54412;51.206;6.888;2023-12-14T01:13:42;38.30;;;25.60;;
5245;SDS011;54412;51.206;6.888;2023-12-14T01:16:08;39.70;;;25.10;;
5245;SDS011;54412;51.206;6.888;2023-12-14T01:18:33;39.00;;;25.20;;
5245;SDS011;54412;51.206;6.888;2023-12-14T01:20:59;39.27;;;24.30;;
5245;SDS011;54412;51.206;6.888;2023-12-14T01:23:25;35.20;;;24.30;;
5245;SDS011;54412;51.206;6.888;2023-12-14T01:25:50;38.93;;;23.63;;
5245;SDS011;54412;51.206;6.888;2023-12-14T01:28:16;34.67;;;23.00;;
5245;SDS011;54412;51.206;6.888;2023-12-14T01:30:42;37.20;;;22.70;;
5245;SDS011;54412;51.206;6.888;2023-12-14T01:33:07;34.83;;;22.10;;
5245;SDS011;54412;51.206;6.888;2023-12-14T01:35:33;34.63;;;21.87;;
5245;SDS011;54412;51.206;6.888;2023-12-14T01:37:59;31.63;;;19.40;;
5245;SDS011;54412;51.206;6.888;2023-12-14T01:40:24;32.67;;;20.10;;
5245;SDS011;54412;51.206;6.888;2023-12-14T01:42:50;31.97;;;19.53;;
5245;SDS011;54412;51.206;6.888;2023-12-14T01:45:15;26.70;;;18.97;;
5245;SDS011;54412;51.206;6.888;2023-12-14T01:47:42;33.57;;;19.63;;
5245;SDS011;54412;51.206;6.888;2023-12-14T01:50:08;26.60;;;19.60;;
5245;SDS011;54412;51.206;6.888;2023-12-14T01:52:34;33.87;;;20.30;;
5245;SDS011;54412;51.206;6.888;2023-12-14T01:55:00;28.97;;;19.57;;
5245;SDS011;54412;51.206;6.888;2023-12-14T01:57:27;36.57;;;21.30;;
5245;SDS011;54412;51.206;6.888;2023-12-14T01:59:53;30.00;;;19.37;;
5245;SDS011;54412;51.206;6.888;2023-12-14T02:02:19;30.40;;;20.53;;
5245;SDS011;54412;51.206;6.888;2023-12-14T02:04:44;31.43;;;20.93;;
5245;SDS011;54412;51.206;6.888;2023-12-14T02:07:10;33.90;;;22.20;;
5245;SDS011;54412;51.206;6.888;2023-12-14T02:09:36;31.93;;;22.03;;
5245;SDS011;54412;51.206;6.888;2023-12-14T02:12:02;31.20;;;22.17;;
5245;SDS011;54412;51.206;6.888;2023-12-14T02:14:28;30.73;;;21.30;;
5245;SDS011;54412;51.206;6.888;2023-12-14T02:16:53;30.07;;;21.50;;
5245;SDS011;54412;51.206;6.888;2023-12-14T02:19:19;30.30;;;20.87;;
5245;SDS011;54412;51.206;6.888;2023-12-14T02:21:45;31.33;;;21.07;;
5245;SDS011;54412;51.206;6.888;2023-12-14T02:24:10;29.83;;;21.83;;
5245;SDS011;54412;51.206;6.888;2023-12-14T02:26:36;28.40;;;21.20;;
5245;SDS011;54412;51.206;6.888;2023-12-14T02:29:02;29.10;;;21.40;;
5245;SDS011;54412;51.206;6.888;2023-12-14T02:31:27;31.27;;;20.50;;
5245;SDS011;54412;51.206;6.888;2023-12-14T02:33:53;27.60;;;19.53;;
5245;SDS011;54412;51.206;6.888;2023-12-14T02:36:19;27.13;;;19.70;;
5245;SDS011;54412;51.206;6.888;2023-12-14T02:38:44;29.37;;;20.60;;
5245;SDS011;54412;51.206;6.888;2023-12-14T02:41:10;23.00;;;18.67;;
5245;SDS011;54412;51.206;6.888;2023-12-14T02:43:36;24.17;;;18.70;;
5245;SDS011;54412;51.206;6.888;2023-12-14T02:46:03;19.20;;;17.17;;
5245;SDS011;54412;51.206;6.888;2023-12-14T02:48:29;23.37;;;16.90;;
5245;SDS011;54412;51.206;6.888;2023-12-14T02:50:55;21.90;;;17.57;;
5245;SDS011;54412;51.206;6.888;2023-12-14T02:53:20;18.90;;;16.60;;
5245;SDS011;54412;51.206;6.888;2023-12-14T02:55:46;20.27;;;17.30;;
5245;SDS011;54412;51.206;6.888;2023-12-14T02:58:12;19.43;;;16.10;;
5245;SDS011;54412;51.206;6.888;2023-12-14T03:00:37;20.53;;;17.27;;
5245;SDS011;54412;51.206;6.888;2023-12-14T03:03:03;20.27;;;17.13;;
5245;SDS011;54412;51.206;6.888;2023-12-14T03:05:29;25.73;;;16.63;;
5245;SDS011;54412;51.206;6.888;2023-12-14T03:07:54;21.23;;;17.10;;
5245;SDS011;54412;51.206;6.888;2023-12-14T03:10:20;21.40;;;16.30;;
5245;SDS011;54412;51.206;6.888;2023-12-14T03:12:46;23.13;;;19.13;;
5245;SDS011;54412;51.206;6.888;2023-12-14T03:15:11;20.13;;;17.00;;
5245;SDS011;54412;51.206;6.888;2023-12-14T03:17:37;20.27;;;16.20;;
5245;SDS011;54412;51.206;6.888;2023-12-14T03:20:03;20.70;;;16.83;;
5245;SDS011;54412;51.206;6.888;2023-12-14T03:22:30;18.50;;;14.87;;
5245;SDS011;54412;51.206;6.888;2023-12-14T03:24:56;17.40;;;14.50;;
5245;SDS011;54412;51.206;6.888;2023-12-14T03:27:22;22.10;;;16.30;;
5245;SDS011;54412;51.206;6.888;2023-12-14T03:29:48;17.40;;;14.63;;
5245;SDS011;54412;51.206;6.888;2023-12-14T03:32:14;18.53;;;15.43;;
5245;SDS011;54412;51.206;6.888;2023-12-14T03:34:39;19.30;;;15.80;;
5245;SDS011;54412;51.206;6.888;2023-12-14T03:37:05;19.60;;;16.40;;
5245;SDS011;54412;51.206;6.888;2023-12-14T03:39:31;18.77;;;16.33;;
5245;SDS011;54412;51.206;6.888;2023-12-14T03:41:57;21.63;;;16.07;;
5245;SDS011;54412;51.206;6.888;2023-12-14T03:44:23;24.10;;;18.57;;
5245;SDS011;54412;51.206;6.888;2023-12-14T03:46:49;29.60;;;19.37;;
5245;SDS011;54412;51.206;6.888;2023-12-14T03:49:15;26.93;;;19.70;;
5245;SDS011;54412;51.206;6.888;2023-12-14T03:51:41;27.80;;;19.23;;
5245;SDS011;54412;51.206;6.888;2023-12-14T03:54:07;32.33;;;20.80;;
5245;SDS011;54412;51.206;6.888;2023-12-14T03:56:32;28.80;;;20.80;;
5245;SDS011;54412;51.206;6.888;2023-12-14T03:58:58;34.00;;;22.63;;
5245;SDS011;54412;51.206;6.888;2023-12-14T04:01:24;26.50;;;19.70;;
5245;SDS011;54412;51.206;6.888;2023-12-14T04:03:49;25.00;;;19.03;;
5245;SDS011;54412;51.206;6.888;2023-12-14T04:06:15;26.10;;;19.30;;
5245;SDS011;54412;51.206;6.888;2023-12-14T04:08:41;21.00;;;16.77;;
5245;SDS011;54412;51.206;6.888;2023-12-14T04:11:07;26.70;;;18.20;;
5245;SDS011;54412;51.206;6.888;2023-12-14T04:13:33;26.90;;;17.73;;
5245;SDS011;54412;51.206;6.888;2023-12-14T04:15:59;25.10;;;19.30;;
5245;SDS011;54412;51.206;6.888;2023-12-14T04:18:25;22.57;;;18.70;;
5245;SDS011;54412;51.206;6.888;2023-12-14T04:20:51;25.63;;;19.53;;
5245;SDS011;54412;51.206;6.888;2023-12-14T04:23:17;26.03;;;19.80;;
5245;SDS011;54412;51.206;6.888;2023-12-14T04:25:43;28.50;;;19.00;;
5245;SDS011;54412;51.206;6.888;2023-12-14T04:28:09;28.93;;;20.07;;
5245;SDS011;54412;51.206;6.888;2023-12-14T04:30:34;24.43;;;19.50;;
5245;SDS011;54412;51.206;6.888;2023-12-14T04:33:00;27.67;;;21.50;;
5245;SDS011;54412;51.206;6.888;2023-12-14T04:35:26;29.10;;;20.77;;
5245;SDS011;54412;51.206;6.888;2023-12-14T04:37:51;26.27;;;18.63;;
5245;SDS011;54412;51.206;6.888;2023-12-14T04:40:17;28.93;;;20.73;;
5245;SDS011;54412;51.206;6.888;2023-12-14T04:42:43;27.27;;;20.43;;
5245;SDS011;54412;51.206;6.888;2023-12-14T04:45:09;26.87;;;20.87;;
5245;SDS011;54412;51.206;6.888;2023-12-14T04:47:35;35.90;;;19.90;;
5245;SDS011;54412;51.206;6.888;2023-12-14T04:50:01;30.03;;;22.03;;
5245;SDS011;54412;51.206;6.888;2023-12-14T04:52:28;32.60;;;22.43;;
5245;SDS011;54412;51.206;6.888;2023-12-14T04:54:53;35.03;;;24.90;;
5245;SDS011;54412;51.206;6.888;2023-12-14T04:57:19;32.60;;;23.45;;
5245;SDS011;54412;51.206;6.888;2023-12-14T04:59:45;33.03;;;22.97;;
5245;SDS011;54412;51.206;6.888;2023-12-14T05:02:11;33.10;;;22.47;;
5245;SDS011;54412;51.206;6.888;2023-12-14T05:04:36;35.03;;;22.33;;
5245;SDS011;54412;51.206;6.888;2023-12-14T05:07:02;31.50;;;21.40;;
5245;SDS011;54412;51.206;6.888;2023-12-14T05:09:28;28.80;;;19.93;;
5245;SDS011;54412;51.206;6.888;2023-12-14T05:11:54;23.90;;;17.87;;
5245;SDS011;54412;51.206;6.888;2023-12-14T05:14:19;23.27;;;16.53;;
5245;SDS011;54412;51.206;6.888;2023-12-14T05:16:45;25.00;;;17.03;;
5245;SDS011;54412;51.206;6.888;2023-12-14T05:19:11;21.30;;;16.10;;
5245;SDS011;54412;51.206;6.888;2023-12-14T05:21:37;19.60;;;15.00;;
5245;SDS011;54412;51.206;6.888;2023-12-14T05:24:04;23.30;;;15.27;;
5245;SDS011;54412;51.206;6.888;2023-12-14T05:26:30;25.40;;;16.80;;
5245;SDS011;54412;51.206;6.888;2023-12-14T05:28:56;17.97;;;13.40;;
5245;SDS011;54412;51.206;6.888;2023-12-14T05:31:22;20.90;;;15.30;;
5245;SDS011;54412;51.206;6.888;2023-12-14T05:33:48;22.40;;;15.97;;
5245;SDS011;54412;51.206;6.888;2023-12-14T05:36:13;22.00;;;16.00;;
5245;SDS011;54412;51.206;6.888;2023-12-14T05:38:39;18.80;;;14.70;;
5245;SDS011;54412;51.206;6.888;2023-12-14T05:41:06;19.23;;;14.97;;
5245;SDS011;54412;51.206;6.888;2023-12-14T05:43:32;19.67;;;14.60;;
5245;SDS011;54412;51.206;6.888;2023-12-14T05:45:57;18.83;;;14.90;;
5245;SDS011;54412;51.206;6.888;2023-12-14T05:48:23;19.53;;;13.13;;
5245;SDS011;54412;51.206;6.888;2023-12-14T05:50:51;17.83;;;14.00;;
5245;SDS011;54412;51.206;6.888;2023-12-14T05:53:17;22.57;;;14.80;;
5245;SDS011;54412;51.206;6.888;2023-12-14T05:55:43;18.10;;;14.23;;
5245;SDS011;54412;51.206;6.888;2023-12-14T05:58:09;17.63;;;13.73;;
5245;SDS011;54412;51.206;6.888;2023-12-14T06:00:35;18.57;;;13.90;;
5245;SDS011;54412;51.206;6.888;2023-12-14T06:03:01;21.37;;;14.60;;
5245;SDS011;54412;51.206;6.888;2023-12-14T06:05:27;18.87;;;14.23;;
5245;SDS011;54412;51.206;6.888;2023-12-14T06:07:53;20.87;;;15.23;;
5245;SDS011;54412;51.206;6.888;2023-12-14T06:10:19;26.77;;;18.67;;
5245;SDS011;54412;51.206;6.888;2023-12-14T06:12:46;25.43;;;18.23;;
5245;SDS011;54412;51.206;6.888;2023-12-14T06:15:12;24.80;;;17.57;;
5245;SDS011;54412;51.206;6.888;2023-12-14T06:17:38;25.00;;;18.80;;
5245;SDS011;54412;51.206;6.888;2023-12-14T06:20:06;22.80;;;16.10;;
5245;SDS011;54412;51.206;6.888;2023-12-14T06:22:36;25.17;;;17.70;;
5245;SDS011;54412;51.206;6.888;2023-12-14T06:25:02;23.17;;;16.90;;
5245;SDS011;54412;51.206;6.888;2023-12-14T06:27:28;21.53;;;16.57;;
5245;SDS011;54412;51.206;6.888;2023-12-14T06:29:54;21.07;;;16.60;;
5245;SDS011;54412;51.206;6.888;2023-12-14T06:32:20;25.30;;;17.10;;
5245;SDS011;54412;51.206;6.888;2023-12-14T06:34:47;23.67;;;16.60;;
5245;SDS011;54412;51.206;6.888;2023-12-14T06:37:12;24.50;;;16.40;;
5245;SDS011;54412;51.206;6.888;2023-12-14T06:39:40;22.37;;;16.93;;
5245;SDS011;54412;51.206;6.888;2023-12-14T06:42:06;19.30;;;15.07;;
5245;SDS011;54412;51.206;6.888;2023-12-14T06:44:32;22.77;;;16.00;;
5245;SDS011;54412;51.206;6.888;2023-12-14T06:46:57;24.40;;;18.03;;
5245;SDS011;54412;51.206;6.888;2023-12-14T06:49:23;21.13;;;16.53;;
5245;SDS011;54412;51.206;6.888;2023-12-14T06:51:50;24.97;;;17.23;;
5245;SDS011;54412;51.206;6.888;2023-12-14T06:54:16;25.10;;;18.10;;
5245;SDS011;54412;51.206;6.888;2023-12-14T06:56:42;24.10;;;18.00;;
5245;SDS011;54412;51.206;6.888;2023-12-14T06:59:08;26.87;;;19.33;;
5245;SDS011;54412;51.206;6.888;2023-12-14T07:01:33;24.43;;;18.63;;
5245;SDS011;54412;51.206;6.888;2023-12-14T07:04:00;29.27;;;20.47;;
5245;SDS011;54412;51.206;6.888;2023-12-14T07:06:28;29.40;;;19.20;;
5245;SDS011;54412;51.206;6.888;2023-12-14T07:08:54;24.63;;;19.10;;
5245;SDS011;54412;51.206;6.888;2023-12-14T07:11:20;31.83;;;19.60;;
5245;SDS011;54412;51.206;6.888;2023-12-14T07:13:46;26.90;;;20.63;;
5245;SDS011;54412;51.206;6.888;2023-12-14T07:16:11;28.50;;;19.23;;
5245;SDS011;54412;51.206;6.888;2023-12-14T07:18:38;26.37;;;18.80;;
5245;SDS011;54412;51.206;6.888;2023-12-14T07:21:07;27.43;;;18.40;;
5245;SDS011;54412;51.206;6.888;2023-12-14T07:23:34;24.93;;;18.00;;
5245;SDS011;54412;51.206;6.888;2023-12-14T07:26:00;26.70;;;18.60;;
5245;SDS011;54412;51.206;6.888;2023-12-14T07:28:27;28.93;;;20.70;;
5245;SDS011;54412;51.206;6.888;2023-12-14T07:30:53;37.03;;;20.30;;
5245;SDS011;54412;51.206;6.888;2023-12-14T07:33:19;33.27;;;21.97;;
5245;SDS011;54412;51.206;6.888;2023-12-14T07:35:45;33.30;;;22.03;;
5245;SDS011;54412;51.206;6.888;2023-12-14T07:38:11;34.97;;;22.87;;
5245;SDS011;54412;51.206;6.888;2023-12-14T07:40:37;35.67;;;22.47;;
5245;SDS011;54412;51.206;6.888;2023-12-14T07:43:06;36.27;;;24.10;;
5245;SDS011;54412;51.206;6.888;2023-12-14T07:45:32;32.37;;;23.37;;
5245;SDS011;54412;51.206;6.888;2023-12-14T07:47:58;33.20;;;23.30;;
5245;SDS011;54412;51.206;6.888;2023-12-14T07:50:24;45.37;;;26.17;;
5245;SDS011;54412;51.206;6.888;2023-12-14T07:52:50;41.30;;;27.10;;
5245;SDS011;54412;51.206;6.888;2023-12-14T07:55:16;40.73;;;26.60;;
5245;SDS011;54412;51.206;6.888;2023-12-14T07:57:42;38.80;;;25.70;;
5245;SDS011;54412;51.206;6.888;2023-12-14T08:00:08;41.47;;;25.90;;
5245;SDS011;54412;51.206;6.888;2023-12-14T08:02:35;39.10;;;24.90;;
5245;SDS011;54412;51.206;6.888;2023-12-14T08:05:01;38.50;;;25.57;;
5245;SDS011;54412;51.206;6.888;2023-12-14T08:07:27;41.10;;;28.33;;
5245;SDS011;54412;51.206;6.888;2023-12-14T08:09:56;39.40;;;25.90;;
5245;SDS011;54412;51.206;6.888;2023-12-14T08:12:22;38.63;;;27.60;;
5245;SDS011;54412;51.206;6.888;2023-12-14T08:14:49;42.17;;;27.97;;
5245;SDS011;54412;51.206;6.888;2023-12-14T08:17:15;55.90;;;32.73;;
5245;SDS011;54412;51.206;6.888;2023-12-14T08:19:41;44.50;;;29.67;;
5245;SDS011;54412;51.206;6.888;2023-12-14T08:22:07;44.00;;;29.37;;
5245;SDS011;54412;51.206;6.888;2023-12-14T08:24:37;39.03;;;27.50;;
5245;SDS011;54412;51.206;6.888;2023-12-14T08:27:03;39.43;;;26.30;;
5245;SDS011;54412;51.206;6.888;2023-12-14T08:29:29;35.27;;;25.90;;
5245;SDS011;54412;51.206;6.888;2023-12-14T08:31:55;32.57;;;23.67;;
5245;SDS011;54412;51.206;6.888;2023-12-14T08:34:25;38.30;;;23.97;;
5245;SDS011;54412;51.206;6.888;2023-12-14T08:36:52;36.93;;;25.50;;
5245;SDS011;54412;51.206;6.888;2023-12-14T08:39:18;41.27;;;27.37;;
5245;SDS011;54412;51.206;6.888;2023-12-14T08:41:45;42.77;;;26.57;;
5245;SDS011;54412;51.206;6.888;2023-12-14T08:44:12;44.43;;;28.00;;
5245;SDS011;54412;51.206;6.888;2023-12-14T08:46:41;47.03;;;27.73;;
5245;SDS011;54412;51.206;6.888;2023-12-14T08:49:10;54.50;;;36.50;;
5245;SDS011;54412;51.206;6.888;2023-12-14T08:51:37;51.60;;;31.20;;
5245;SDS011;54412;51.206;6.888;2023-12-14T08:54:05;50.70;;;29.77;;
5245;SDS011;54412;51.206;6.888;2023-12-14T08:56:31;51.90;;;32.20;;
5245;SDS011;54412;51.206;6.888;2023-12-14T08:58:57;51.97;;;30.57;;
5245;SDS011;54412;51.206;6.888;2023-12-14T09:01:24;55.50;;;30.93;;
5245;SDS011;54412;51.206;6.888;2023-12-14T09:03:50;50.90;;;32.20;;
5245;SDS011;54412;51.206;6.888;2023-12-14T09:06:16;49.43;;;32.00;;
5245;SDS011;54412;51.206;6.888;2023-12-14T09:08:43;49.87;;;31.87;;
5245;SDS011;54412;51.206;6.888;2023-12-14T09:11:10;60.10;;;33.00;;
5245;SDS011;54412;51.206;6.888;2023-12-14T09:13:36;54.37;;;33.00;;
5245;SDS011;54412;51.206;6.888;2023-12-14T09:16:01;58.73;;;35.27;;
5245;SDS011;54412;51.206;6.888;2023-12-14T09:18:27;75.07;;;46.00;;
5245;SDS011;54412;51.206;6.888;2023-12-14T09:20:53;65.37;;;40.20;;
5245;SDS011;54412;51.206;6.888;2023-12-14T09:23:18;63.87;;;39.47;;
5245;SDS011;54412;51.206;6.888;2023-12-14T09:25:44;65.93;;;41.03;;
5245;SDS011;54412;51.206;6.888;2023-12-14T09:28:10;69.43;;;41.93;;
5245;SDS011;54412;51.206;6.888;2023-12-14T09:30:36;64.03;;;39.77;;
5245;SDS011;54412;51.206;6.888;2023-12-14T09:33:02;80.10;;;40.60;;
5245;SDS011;54412;51.206;6.888;2023-12-14T09:35:28;62.17;;;40.40;;
5245;SDS011;54412;51.206;6.888;2023-12-14T09:37:54;68.30;;;39.77;;
5245;SDS011;54412;51.206;6.888;2023-12-14T09:40:21;59.40;;;36.77;;
5245;SDS011;54412;51.206;6.888;2023-12-14T09:42:47;59.10;;;36.57;;
5245;SDS011;54412;51.206;6.888;2023-12-14T09:45:13;54.37;;;33.90;;
5245;SDS011;54412;51.206;6.888;2023-12-14T09:47:42;56.97;;;34.87;;
5245;SDS011;54412;51.206;6.888;2023-12-14T09:50:11;56.87;;;35.70;;
5245;SDS011;54412;51.206;6.888;2023-12-14T09:52:39;54.80;;;34.10;;
5245;SDS011;54412;51.206;6.888;2023-12-14T09:55:10;50.50;;;32.03;;
5245;SDS011;54412;51.206;6.888;2023-12-14T09:57:36;47.70;;;29.97;;
5245;SDS011;54412;51.206;6.888;2023-12-14T10:00:02;46.47;;;31.57;;
5245;SDS011;54412;51.206;6.888;2023-12-14T10:02:31;48.43;;;29.23;;
5245;SDS011;54412;51.206;6.888;2023-12-14T10:04:57;38.07;;;27.20;;
5245;SDS011;54412;51.206;6.888;2023-12-14T10:07:23;46.10;;;27.80;;
5245;SDS011;54412;51.206;6.888;2023-12-14T10:09:49;43.27;;;28.40;;
5245;SDS011;54412;51.206;6.888;2023-12-14T10:12:15;38.67;;;27.00;;
5245;SDS011;54412;51.206;6.888;2023-12-14T10:14:41;40.00;;;27.17;;
5245;SDS011;54412;51.206;6.888;2023-12-14T10:17:14;38.87;;;25.00;;
5245;SDS011;54412;51.206;6.888;2023-12-14T10:19:46;37.67;;;25.27;;
5245;SDS011;54412;51.206;6.888;2023-12-14T10:22:14;35.27;;;25.00;;
5245;SDS011;54412;51.206;6.888;2023-12-14T10:24:44;34.87;;;24.17;;
5245;SDS011;54412;51.206;6.888;2023-12-14T10:27:12;34.70;;;25.43;;
5245;SDS011;54412;51.206;6.888;2023-12-14T10:29:40;33.67;;;24.70;;
5245;SDS011;54412;51.206;6.888;2023-12-14T10:32:07;34.30;;;24.87;;
5245;SDS011;54412;51.206;6.888;2023-12-14T10:34:34;32.70;;;23.40;;
5245;SDS011;54412;51.206;6.888;2023-12-14T10:37:01;36.50;;;25.20;;
5245;SDS011;54412;51.206;6.888;2023-12-14T10:39:30;30.93;;;22.77;;
5245;SDS011;54412;51.206;6.888;2023-12-14T10:41:58;31.03;;;23.90;;
5245;SDS011;54412;51.206;6.888;2023-12-14T10:44:35;35.90;;;26.60;;
5245;SDS011;54412;51.206;6.888;2023-12-14T10:47:03;38.43;;;28.10;;
5245;SDS011;54412;51.206;6.888;2023-12-14T10:49:31;36.07;;;27.77;;
5245;SDS011;54412;51.206;6.888;2023-12-14T10:51:59;33.43;;;24.10;;
5245;SDS011;54412;51.206;6.888;2023-12-14T10:54:28;34.47;;;24.43;;
5245;SDS011;54412;51.206;6.888;2023-12-14T10:56:56;35.77;;;24.73;;
5245;SDS011;54412;51.206;6.888;2023-12-14T10:59:25;30.70;;;23.17;;
5245;SDS011;54412;51.206;6.888;2023-12-14T11:01:54;32.13;;;23.40;;
5245;SDS011;54412;51.206;6.888;2023-12-14T11:04:26;30.60;;;22.40;;
5245;SDS011;54412;51.206;6.888;2023-12-14T11:06:53;34.53;;;24.83;;
5245;SDS011;54412;51.206;6.888;2023-12-14T11:09:19;31.07;;;22.80;;
5245;SDS011;54412;51.206;6.888;2023-12-14T11:14:18;30.03;;;22.87;;
5245;SDS011;54412;51.206;6.888;2023-12-14T11:16:47;30.67;;;22.87;;
5245;SDS011;54412;51.206;6.888;2023-12-14T11:21:48;38.00;;;27.60;;
5245;SDS011;54412;51.206;6.888;2023-12-14T11:24:33;30.80;;;21.90;;
5245;SDS011;54412;51.206;6.888;2023-12-14T11:27:06;28.40;;;21.50;;
5245;SDS011;54412;51.206;6.888;2023-12-14T11:29:32;30.00;;;20.83;;
5245;SDS011;54412;51.206;6.888;2023-12-14T11:32:01;26.07;;;19.73;;
5245;SDS011;54412;51.206;6.888;2023-12-14T11:34:27;25.80;;;19.50;;
5245;SDS011;54412;51.206;6.888;2023-12-14T11:36:53;27.47;;;20.30;;
5245;SDS011;54412;51.206;6.888;2023-12-14T11:39:20;26.17;;;18.97;;
5245;SDS011;54412;51.206;6.888;2023-12-14T11:42:02;23.10;;;18.43;;
5245;SDS011;54412;51.206;6.888;2023-12-14T11:44:31;25.70;;;18.03;;
5245;SDS011;54412;51.206;6.888;2023-12-14T11:46:57;27.60;;;18.00;;
5245;SDS011;54412;51.206;6.888;2023-12-14T11:49:24;28.33;;;20.03;;
5245;SDS011;54412;51.206;6.888;2023-12-14T11:51:57;28.43;;;21.10;;
5245;SDS011;54412;51.206;6.888;2023-12-14T11:54:23;25.10;;;18.73;;
5245;SDS011;54412;51.206;6.888;2023-12-14T11:56:49;24.93;;;19.63;;
5245;SDS011;54412;51.206;6.888;2023-12-14T11:59:16;23.90;;;19.07;;
5245;SDS011;54412;51.206;6.888;2023-12-14T12:01:53;28.27;;;19.47;;
5245;SDS011;54412;51.206;6.888;2023-12-14T12:04:24;28.87;;;20.70;;
5245;SDS011;54412;51.206;6.888;2023-12-14T12:06:58;31.20;;;21.60;;
5245;SDS011;54412;51.206;6.888;2023-12-14T12:09:33;33.97;;;21.00;;
5245;SDS011;54412;51.206;6.888;2023-12-14T12:12:09;30.53;;;20.97;;
5245;SDS011;54412;51.206;6.888;2023-12-14T12:14:37;38.00;;;23.13;;
5245;SDS011;54412;51.206;6.888;2023-12-14T12:17:05;28.90;;;21.50;;
5245;SDS011;54412;51.206;6.888;2023-12-14T12:19:32;34.40;;;24.30;;
5245;SDS011;54412;51.206;6.888;2023-12-14T12:22:02;32.80;;;22.20;;
5245;SDS011;54412;51.206;6.888;2023-12-14T12:24:29;27.90;;;20.03;;
5245;SDS011;54412;51.206;6.888;2023-12-14T12:26:55;30.77;;;20.73;;
5245;SDS011;54412;51.206;6.888;2023-12-14T12:29:21;25.37;;;17.50;;
5245;SDS011;54412;51.206;6.888;2023-12-14T12:31:47;23.90;;;17.50;;
5245;SDS011;54412;51.206;6.888;2023-12-14T12:34:13;22.40;;;14.87;;
5245;SDS011;54412;51.206;6.888;2023-12-14T12:36:40;22.53;;;15.87;;
5245;SDS011;54412;51.206;6.888;2023-12-14T12:39:06;20.20;;;18.00;;
5245;SDS011;54412;51.206;6.888;2023-12-14T12:41:33;22.40;;;18.33;;
5245;SDS011;54412;51.206;6.888;2023-12-14T12:43:59;24.67;;;15.70;;
5245;SDS011;54412;51.206;6.888;2023-12-14T12:46:31;21.27;;;15.77;;
5245;SDS011;54412;51.206;6.888;2023-12-14T12:48:58;18.53;;;15.00;;
5245;SDS011;54412;51.206;6.888;2023-12-14T12:51:24;16.23;;;13.53;;
5245;SDS011;54412;51.206;6.888;2023-12-14T12:53:51;17.17;;;13.17;;
5245;SDS011;54412;51.206;6.888;2023-12-14T12:56:18;19.87;;;14.53;;
5245;SDS011;54412;51.206;6.888;2023-12-14T12:58:44;15.70;;;13.30;;
5245;SDS011;54412;51.206;6.888;2023-12-14T13:01:09;16.70;;;11.80;;
5245;SDS011;54412;51.206;6.888;2023-12-14T13:03:35;12.33;;;11.00;;
5245;SDS011;54412;51.206;6.888;2023-12-14T13:06:01;11.97;;;10.73;;
5245;SDS011;54412;51.206;6.888;2023-12-14T13:08:28;16.40;;;10.47;;
5245;SDS011;54412;51.206;6.888;2023-12-14T13:10:53;11.70;;;10.30;;
5245;SDS011;54412;51.206;6.888;2023-12-14T13:13:19;11.23;;;9.07;;
5245;SDS011;54412;51.206;6.888;2023-12-14T13:15:45;14.07;;;9.17;;
5245;SDS011;54412;51.206;6.888;2023-12-14T13:18:10;12.40;;;7.63;;
5245;SDS011;54412;51.206;6.888;2023-12-14T13:20:36;13.40;;;9.00;;
5245;SDS011;54412;51.206;6.888;2023-12-14T13:23:02;18.13;;;12.03;;
5245;SDS011;54412;51.206;6.888;2023-12-14T13:25:27;17.87;;;12.10;;
5245;SDS011;54412;51.206;6.888;2023-12-14T13:27:53;11.27;;;8.63;;
5245;SDS011;54412;51.206;6.888;2023-12-14T13:30:19;9.97;;;7.60;;
5245;SDS011;54412;51.206;6.888;2023-12-14T13:32:47;10.10;;;8.33;;
5245;SDS011;54412;51.206;6.888;2023-12-14T13:35:13;12.90;;;6.93;;
5245;SDS011;54412;51.206;6.888;2023-12-14T13:37:39;8.20;;;7.40;;
5245;SDS011;54412;51.206;6.888;2023-12-14T13:40:05;8.30;;;7.37;;
5245;SDS011;54412;51.206;6.888;2023-12-14T13:42:31;11.83;;;7.60;;
5245;SDS011;54412;51.206;6.888;2023-12-14T13:44:57;7.57;;;6.87;;
5245;SDS011;54412;51.206;6.888;2023-12-14T13:47:23;8.20;;;6.47;;
5245;SDS011;54412;51.206;6.888;2023-12-14T13:49:48;9.30;;;7.13;;
5245;SDS011;54412;51.206;6.888;2023-12-14T13:52:14;7.67;;;6.87;;
5245;SDS011;54412;51.206;6.888;2023-12-14T13:54:40;6.73;;;5.70;;
5245;SDS011;54412;51.206;6.888;2023-12-14T13:57:05;7.47;;;6.70;;
5245;SDS011;54412;51.206;6.888;2023-12-14T13:59:31;7.20;;;6.40;;
5245;SDS011;54412;51.206;6.888;2023-12-14T14:01:57;7.43;;;6.30;;
5245;SDS011;54412;51.206;6.888;2023-12-14T14:04:22;7.30;;;6.37;;
5245;SDS011;54412;51.206;6.888;2023-12-14T14:06:48;7.77;;;6.57;;
5245;SDS011;54412;51.206;6.888;2023-12-14T14:09:13;8.70;;;7.23;;
5245;SDS011;54412;51.206;6.888;2023-12-14T14:11:39;9.70;;;7.90;;
5245;SDS011;54412;51.206;6.888;2023-12-14T14:14:10;11.10;;;7.07;;
5245;SDS011;54412;51.206;6.888;2023-12-14T14:16:36;8.10;;;7.20;;
5245;SDS011;54412;51.206;6.888;2023-12-14T14:19:02;7.90;;;7.10;;
5245;SDS011;54412;51.206;6.888;2023-12-14T14:21:28;12.47;;;7.47;;
5245;SDS011;54412;51.206;6.888;2023-12-14T14:23:54;10.50;;;8.57;;
5245;SDS011;54412;51.206;6.888;2023-12-14T14:26:19;10.53;;;8.43;;
5245;SDS011;54412;51.206;6.888;2023-12-14T14:28:45;10.37;;;8.30;;
5245;SDS011;54412;51.206;6.888;2023-12-14T14:31:11;11.70;;;8.33;;
5245;SDS011;54412;51.206;6.888;2023-12-14T14:33:37;15.33;;;8.40;;
5245;SDS011;54412;51.206;6.888;2023-12-14T14:36:02;8.93;;;7.70;;